Air Quality Table

TIMESTAMP NO2 O3 PM2.5 TEMP HUM AIRPRES WS WD NO
2022-01-24 01:00 N/A 71.49 µg/m3 1.89 µg/m3 11.25 °C N/A 1,014.80 mbar 1.27 m/s 163.37 Deg N/A
2022-01-23 01:00 N/A 56.71 µg/m3 4.73 µg/m3 11.28 °C N/A 1,011.27 mbar 1.26 m/s 223.06 Deg N/A
2022-01-22 01:00 N/A 76.02 µg/m3 4.68 µg/m3 12.48 °C N/A 1,010.07 mbar 1.27 m/s 310 Deg N/A
2022-01-21 01:00 N/A 58.03 µg/m3 6.59 µg/m3 12.09 °C N/A 1,013.80 mbar 0.87 m/s 297.02 Deg N/A
2022-01-20 01:00 N/A 48.09 µg/m3 8.33 µg/m3 12.14 °C N/A 1,018.43 mbar 0.92 m/s 244.03 Deg N/A
2022-01-19 01:00 N/A 62.47 µg/m3 5.56 µg/m3 11.94 °C N/A 1,017.48 mbar 0.93 m/s 246.64 Deg N/A
2022-01-18 01:00 N/A 73.82 µg/m3 3 µg/m3 12.79 °C N/A 1,014.57 mbar 1.18 m/s 332.59 Deg N/A
2022-01-17 01:00 N/A 51 µg/m3 5.59 µg/m3 12.03 °C N/A 1,013.55 mbar 0.62 m/s 278.66 Deg N/A
2022-01-16 01:00 N/A 57.41 µg/m3 4.1 µg/m3 10.4 °C N/A 1,011.14 mbar 0.84 m/s 256.29 Deg N/A
2022-01-15 01:00 N/A 70.9 µg/m3 5.73 µg/m3 11.03 °C N/A 1,015.19 mbar 2.11 m/s 243.31 Deg N/A
2022-01-14 01:00 N/A 63.97 µg/m3 3.94 µg/m3 11.48 °C N/A 1,012.96 mbar 2.64 m/s 255.91 Deg N/A
2022-01-13 01:00 N/A 44.04 µg/m3 5.48 µg/m3 11.66 °C N/A 1,005.35 mbar 0.96 m/s 213.96 Deg N/A
2022-01-12 01:00 N/A 63.98 µg/m3 2.89 µg/m3 12.12 °C N/A 995.61 mbar 1.83 m/s 221.23 Deg N/A
2022-01-11 01:00 N/A 76.06 µg/m3 1.1 µg/m3 10.76 °C N/A 988.63 mbar 2.36 m/s 311.59 Deg N/A
2022-01-10 01:00 N/A 77.77 µg/m3 1.82 µg/m3 12.7 °C N/A 997.14 mbar 2.44 m/s 309.12 Deg N/A
2022-01-09 01:00 N/A 70.57 µg/m3 1.64 µg/m3 12.78 °C N/A 998.20 mbar 2.37 m/s 268.67 Deg N/A
2022-01-08 01:00 N/A 64.88 µg/m3 2.25 µg/m3 12.29 °C N/A 998.11 mbar 1.68 m/s 246.79 Deg N/A
2022-01-07 01:00 N/A 55.53 µg/m3 5.87 µg/m3 13.59 °C N/A 998.39 mbar 1.31 m/s 171.72 Deg N/A
2022-01-06 01:00 N/A 69.75 µg/m3 5.1 µg/m3 15.3 °C N/A 1,000.96 mbar 2.36 m/s 274.91 Deg N/A
2022-01-05 01:00 N/A 69.88 µg/m3 6.9 µg/m3 14.51 °C N/A 1,007.69 mbar 1.48 m/s 279.31 Deg N/A
2022-01-04 01:00 N/A 63.33 µg/m3 2.69 µg/m3 13.9 °C N/A 1,011.41 mbar 1.65 m/s 322.99 Deg N/A
2022-01-03 01:00 N/A 51.95 µg/m3 4.43 µg/m3 14.42 °C 8.54 % 1,013.99 mbar 0.76 m/s 295.12 Deg N/A
2022-01-02 01:00 N/A 58.85 µg/m3 5.18 µg/m3 14.7 °C 47.16 % 1,012.89 mbar 1.52 m/s 309.56 Deg N/A
2022-01-01 01:00 N/A 48.23 µg/m3 6.01 µg/m3 13.83 °C 99.54 % 1,011.96 mbar 0.75 m/s 261.95 Deg N/A
2021-12-31 01:00 N/A 48.09 µg/m3 7.24 µg/m3 15.31 °C 99.99 % 1,004.25 mbar 1.54 m/s 220.49 Deg N/A
2021-12-30 01:00 N/A 70.77 µg/m3 8.31 µg/m3 15.92 °C 97.84 % 1,001.66 mbar 2.28 m/s 322.77 Deg N/A
2021-12-29 01:00 N/A 69.1 µg/m3 7.68 µg/m3 16.02 °C 86.44 % 1,000.91 mbar 2.18 m/s 316.69 Deg N/A
2021-12-28 01:00 N/A 62.12 µg/m3 5.72 µg/m3 16.08 °C 83.87 % 1,001.82 mbar 1.29 m/s 301.73 Deg N/A
2021-12-27 01:00 N/A 64.71 µg/m3 5.8 µg/m3 16.93 °C 73.24 % 1,002.55 mbar 2.2 m/s 251.06 Deg N/A
2021-12-26 01:00 N/A 72.32 µg/m3 7.44 µg/m3 16.21 °C 85.62 % 1,005.61 mbar 1.97 m/s 233.77 Deg N/A

It is to be noted that the data is provisional and subject to quality assurance procedures. For validated data kindly refer your request to contact.air@era.org.mt